San Angelo, Texas
Current Conditions -  °F | °C
As of 2:16 AM on Sunday 21 Dec 2014 (Local Time) from KSJT Reporting Station
Overcast Overcast  
Wind Chill: 10°   Ceiling: 1400
Heat Index: 10°   Visibility: 10mi
Dew Point:   Wind: 13mph
Humidity: 80%   Direction: 190°S
Pressure: 30.06"   Gusts: NA
Location:  31.46°N, 100.44°W
Report Text: KSJT 210816Z AUTO 19011KT 10SM OVC014 10/07 A3006 RMK AO2 T01000067
Loading
Personal Weather Stations






























Interactive Weather Map New forecast layout! Learn more

10-Day Weather Forecast

Advertisements
Track Severe Weather on mobile